首页
METAR-TAF:

METAR-TAF

机场 :

拉奥罗拉国际机场

瓜地馬拉, 危地马拉

纬度: 14-35N, 经度: 090-31W, 海拔: 1489米

当前天气观测

该预报发布于10分钟前的06:00 UTC
风速12节,风向北转东北
温度 16°C
湿度 82%
气压 1028 hPa
能见度10公里或以上
多云层高于1600英尺

METAR: MGGT 230600Z 02012KT 9999 BKN016 16/13 Q1028 A3036

时间: 00:10 (06:10 UTC)

预报

该预报发布于1小时和10分钟前的05:00 UTC
预报有效从23日的 06点(UTC)到 24日的 06点(UTC)
风速16节,风向北转东北
能见度10公里或以上
多云层高于1500英尺
短暂存在
从 23日的 06点(UTC)到 23日的 14点(UTC)
多云层高于1200英尺
成为
从 23日的 16点(UTC)到 23日的 18点(UTC)
风速12节,风向北转东北
散云层高于1800英尺
成为
从 24日的 01点(UTC)到 24日的 03点(UTC)
散云层高于1600英尺

TAF: MGGT 230500Z 2306/2406 02016KT 9999 BKN015 TX25/2320Z TN13/2312Z TEMPO 2306/2314 BKN012 BECMG 2316/2318 03012KT SCT018 BECMG 2401/2403 SCT016

超过4000个机场的气象观测和天气预报(METAR&TAF报告)。

可查询的气象台以黄色和红色小点在地图上表示。

将鼠标移到小点上方,可查看气象台名称。

然后点击查看天气观测和预报。

如需切换地图:点击带黑十字的绿色按钮放大地图;点击带横线的绿色按钮缩小地图;或者点击绿色箭头查看邻近地区的地图。


METAR-TAF: